McClure, South Dakota
Current Conditions -  °F | °C
As of 10:53 AM on Friday 19 Dec 2014 (Local Time) from KPIR Reporting Station
Clear Clear  
Wind Chill: 21°   Ceiling: Unl
Heat Index: 21°   Visibility: 7mi
Dew Point: 19°   Wind: 3mph
Humidity: 92%   Direction: 180°S
Pressure: 30.02"   Gusts: NA
Location:  44.0206°N, 100.306°W
Report Text: KPIR 191653Z AUTO 18003KT 7SM CLR M06/M07 A3002 RMK AO2 SLP193 T10611072
Loading
Personal Weather Stations






























Interactive Weather Map New forecast layout! Learn more

10-Day Weather Forecast

Advertisements
Track Severe Weather on mobile